Time;durP1;ratioP1;P1;durP2;ratioP2;P2;SDS_P1;SDS_P2;PMS_P1;PMS_P2;Temp;Humidity;BMP_temperature;BMP_pressure;BME280_temperature;BME280_humidity;BME280_pressure;Samples;Min_cycle;Max_cycle;Signal;HPM_P1;HPM_P2
2023/09/19 00:00:49;;;;;;;13.20;10.60;;;;;;;17.07;61.44;100984.25;108222;1235;61310;-60
2023/09/19 00:03:16;;;;;;;14.70;11.50;;;;;;;17.05;61.44;100983.92;108075;1232;60445;-59
2023/09/19 00:05:44;;;;;;;17.60;11.30;;;;;;;17.02;61.56;100983.82;108128;1235;65139;-60
2023/09/19 00:08:13;;;;;;;13.40;11.50;;;;;;;16.98;61.48;100985.08;108185;1232;62005;-59
2023/09/19 00:10:41;;;;;;;15.50;12.40;;;;;;;16.93;61.38;100986.79;108578;1232;64033;-59
2023/09/19 00:13:09;;;;;;;15.00;11.40;;;;;;;16.86;61.45;100988.33;108467;1232;60437;-59
2023/09/19 00:15:50;;;;;;;15.20;11.60;;;;;;;16.79;61.47;100985.30;108653;1232;60436;-59
2023/09/19 00:18:21;;;;;;;14.10;10.40;;;;;;;16.76;61.49;100987.40;108175;1231;64936;-57
2023/09/19 00:20:49;;;;;;;13.20;10.90;;;;;;;16.79;61.57;100985.52;108145;1232;61901;-60
2023/09/19 00:23:15;;;;;;;12.70;11.30;;;;;;;16.81;61.49;100985.52;108235;1236;63784;-59
2023/09/19 00:25:42;;;;;;;14.20;11.50;;;;;;;16.80;61.43;100988.27;108121;1231;60811;-59
2023/09/19 00:28:09;;;;;;;16.70;11.60;;;;;;;16.76;61.75;100982.05;108162;1232;60580;-59
2023/09/19 00:30:38;;;;;;;16.50;12.70;;;;;;;16.71;61.88;100983.56;108682;1237;64977;-58
2023/09/19 00:33:08;;;;;;;16.20;11.00;;;;;;;16.66;61.85;100978.38;108494;1232;61597;-59
2023/09/19 00:35:36;;;;;;;15.90;11.30;;;;;;;16.65;61.92;100980.66;108119;1232;64215;-59
2023/09/19 00:38:10;;;;;;;13.90;11.50;;;;;;;16.65;62.02;100985.02;108069;1232;60452;-60
2023/09/19 00:40:38;;;;;;;15.00;11.40;;;;;;;16.63;61.93;100985.27;109367;1232;60417;-60
2023/09/19 00:43:04;;;;;;;13.90;11.50;;;;;;;16.59;61.78;100981.61;108133;1237;65586;-59
2023/09/19 00:45:32;;;;;;;14.50;11.40;;;;;;;16.54;61.82;100976.88;108714;1234;61435;-58
2023/09/19 00:48:03;;;;;;;14.80;11.10;;;;;;;16.50;61.84;100976.51;108672;1236;63747;-59
2023/09/19 00:50:32;;;;;;;16.10;11.40;;;;;;;16.47;62.09;100976.36;108507;1232;60403;-60
2023/09/19 00:52:58;;;;;;;14.00;10.80;;;;;;;16.46;62.09;100977.98;108161;1236;60430;-59
2023/09/19 00:55:25;;;;;;;12.90;10.50;;;;;;;16.47;62.26;100978.64;108857;1235;64764;-59
2023/09/19 00:57:52;;;;;;;15.00;10.80;;;;;;;16.45;62.40;100980.91;108153;1232;61562;-60
2023/09/19 01:00:20;;;;;;;16.80;11.90;;;;;;;16.43;62.64;100981.48;108018;1236;63987;-60
2023/09/19 01:02:47;;;;;;;15.20;12.00;;;;;;;16.39;62.86;100982.75;108160;1236;60426;-59
2023/09/19 01:05:18;;;;;;;15.70;11.40;;;;;;;16.35;62.93;100983.33;108216;1237;60515;-60
2023/09/19 01:07:45;;;;;;;15.20;10.60;;;;;;;16.35;63.06;100983.14;108145;1235;63900;-60
2023/09/19 01:10:16;;;;;;;15.80;10.90;;;;;;;16.37;63.12;100985.29;108365;1237;60445;-60
2023/09/19 01:13:08;;;;;;;12.80;11.20;;;;;;;16.34;63.17;100981.23;108232;1231;63935;-61
2023/09/19 01:15:36;;;;;;;14.70;10.50;;;;;;;16.34;63.31;100980.02;108539;1231;60827;-60
2023/09/19 01:18:12;;;;;;;16.00;10.80;;;;;;;16.34;63.00;100978.29;108656;1235;60541;-58
2023/09/19 01:21:06;;;;;;;15.70;12.50;;;;;;;16.30;62.88;100975.64;108358;1235;64914;-58
2023/09/19 01:23:51;;;;;;;13.50;11.00;;;;;;;16.28;62.71;100971.60;108045;1235;60547;-57
2023/09/19 01:26:37;;;;;;;14.70;11.20;;;;;;;16.30;62.54;100971.16;108068;1235;63884;-60
2023/09/19 01:29:29;;;;;;;13.90;11.20;;;;;;;16.31;62.32;100970.44;109350;1235;60308;-59
2023/09/19 01:32:01;;;;;;;16.10;12.90;;;;;;;16.27;62.10;100969.89;108969;1232;59349;-60
2023/09/19 01:34:49;;;;;;;14.50;11.50;;;;;;;16.23;61.96;100973.09;108852;1232;63821;-60
2023/09/19 01:37:19;;;;;;;14.20;11.30;;;;;;;16.21;61.98;100974.20;108349;1235;61527;-60
2023/09/19 01:39:49;;;;;;;16.10;12.10;;;;;;;16.18;62.05;100973.95;108050;1231;64401;-60
2023/09/19 01:42:19;;;;;;;13.90;11.20;;;;;;;16.14;61.94;100973.17;108380;1235;60429;-60
2023/09/19 01:44:46;;;;;;;14.40;11.80;;;;;;;16.12;61.81;100973.63;108197;1232;60446;-60
2023/09/19 01:47:28;;;;;;;15.70;10.40;;;;;;;16.12;61.59;100975.73;108511;1235;65327;-60
2023/09/19 01:50:16;;;;;;;14.50;10.90;;;;;;;16.12;61.43;100973.41;108220;1231;61405;-59
2023/09/19 01:52:48;;;;;;;14.10;10.80;;;;;;;16.10;61.15;100969.73;108129;1235;64012;-59
2023/09/19 01:55:17;;;;;;;14.60;11.40;;;;;;;16.06;61.00;100967.30;108343;1231;60591;-59
2023/09/19 01:58:07;;;;;;;12.90;9.60;;;;;;;16.01;61.10;100966.37;108120;1237;60523;-59
2023/09/19 02:00:36;;;;;;;13.40;10.00;;;;;;;15.95;60.94;100965.14;107863;1232;64915;-59
2023/09/19 02:03:02;;;;;;;14.50;10.30;;;;;;;15.90;60.88;100962.61;108194;1232;61397;-58
2023/09/19 02:05:30;;;;;;;16.80;11.10;;;;;;;15.86;60.82;100963.48;108735;1235;63971;-59
2023/09/19 02:07:58;;;;;;;16.80;9.80;;;;;;;15.87;60.75;100960.02;108689;1236;60541;-60
2023/09/19 02:10:25;;;;;;;13.20;10.20;;;;;;;15.91;60.63;100960.90;109620;1231;60548;-59
2023/09/19 02:12:52;;;;;;;14.10;11.00;;;;;;;15.91;60.75;100954.98;108144;1235;63712;-58
2023/09/19 02:15:18;;;;;;;13.30;10.30;;;;;;;15.90;61.01;100954.25;108146;1240;60446;-58
2023/09/19 02:17:45;;;;;;;11.50;9.10;;;;;;;15.87;61.09;100952.99;108080;1231;64002;-56
2023/09/19 02:20:14;;;;;;;12.50;10.30;;;;;;;15.83;61.41;100951.71;108144;1238;60346;-59
2023/09/19 02:22:41;;;;;;;16.60;9.70;;;;;;;15.79;61.47;100955.83;108406;1235;60483;-60
2023/09/19 02:25:08;;;;;;;12.20;9.10;;;;;;;15.77;61.58;100951.16;108464;1234;64850;-58
2023/09/19 02:27:36;;;;;;;12.90;9.20;;;;;;;15.81;61.60;100947.52;108690;1235;62060;-59
2023/09/19 02:30:04;;;;;;;12.30;9.50;;;;;;;15.80;61.67;100949.19;108669;1235;63867;-57
2023/09/19 02:32:31;;;;;;;11.90;8.70;;;;;;;15.77;61.74;100947.00;109492;1232;59983;-60
2023/09/19 02:34:58;;;;;;;10.80;9.40;;;;;;;15.73;61.80;100946.80;108096;1235;60436;-59
2023/09/19 02:37:25;;;;;;;11.30;9.00;;;;;;;15.68;61.85;100946.30;108931;1235;65311;-59
2023/09/19 02:39:52;;;;;;;12.30;8.80;;;;;;;15.64;61.97;100945.00;108306;1231;61257;-59
2023/09/19 02:42:19;;;;;;;10.00;8.00;;;;;;;15.65;62.16;100948.96;107975;1237;64187;-60
2023/09/19 02:44:47;;;;;;;10.90;8.50;;;;;;;15.69;62.27;100948.06;108169;1231;60419;-59
2023/09/19 02:47:15;;;;;;;12.70;9.10;;;;;;;15.69;62.54;100947.27;108203;1235;60529;-58
2023/09/19 02:49:42;;;;;;;12.50;8.90;;;;;;;15.67;62.77;100941.13;108267;1236;65016;-59
2023/09/19 02:52:11;;;;;;;12.00;9.30;;;;;;;15.64;63.00;100933.27;108254;1237;61741;-59
2023/09/19 02:54:37;;;;;;;12.40;9.10;;;;;;;15.63;63.09;100933.77;108107;1235;63925;-58
2023/09/19 02:57:06;;;;;;;11.20;8.70;;;;;;;15.65;63.01;100932.64;107990;1236;59309;-59
2023/09/19 02:59:37;;;;;;;12.80;9.10;;;;;;;15.68;62.68;100929.02;108150;1238;60570;-57
2023/09/19 03:02:05;;;;;;;13.30;9.90;;;;;;;15.69;62.75;100921.86;108731;1234;63685;-59
2023/09/19 03:04:33;;;;;;;14.20;11.60;;;;;;;15.67;62.56;100919.52;108741;1231;62247;-59
2023/09/19 03:07:01;;;;;;;15.10;11.80;;;;;;;15.65;62.66;100914.48;108603;1236;64242;-59
2023/09/19 03:09:28;;;;;;;14.30;10.10;;;;;;;15.63;62.77;100915.87;108767;1232;59289;-59
2023/09/19 03:11:55;;;;;;;15.30;11.30;;;;;;;15.62;62.67;100914.23;108795;1233;60487;-59
2023/09/19 03:14:23;;;;;;;14.20;10.20;;;;;;;15.65;62.85;100912.17;109749;1235;64944;-60
2023/09/19 03:16:50;;;;;;;13.90;10.90;;;;;;;15.69;62.91;100910.39;108179;1242;61513;-59
2023/09/19 03:19:20;;;;;;;14.30;11.30;;;;;;;15.73;62.86;100911.20;108310;1244;62446;-58
2023/09/19 03:21:49;;;;;;;14.70;11.40;;;;;;;15.75;62.80;100907.36;108010;1237;60854;-59
2023/09/19 03:24:16;;;;;;;13.00;11.00;;;;;;;15.70;62.96;100904.21;108238;1235;60813;-59
2023/09/19 03:26:45;;;;;;;12.00;10.10;;;;;;;15.68;63.11;100903.71;108223;1235;65032;-58
2023/09/19 03:29:13;;;;;;;13.60;10.40;;;;;;;15.65;62.95;100904.23;108601;1235;70446;-53
2023/09/19 03:31:41;;;;;;;13.50;10.50;;;;;;;15.62;62.96;100906.05;109210;1232;64440;-58
2023/09/19 03:34:08;;;;;;;13.90;10.70;;;;;;;15.61;63.02;100905.60;108521;1232;60465;-58
2023/09/19 03:36:36;;;;;;;13.00;10.10;;;;;;;15.62;63.00;100906.02;108659;1231;60426;-59
2023/09/19 03:39:06;;;;;;;16.50;10.40;;;;;;;15.63;62.93;100906.85;108104;1238;65118;-61
2023/09/19 03:41:36;;;;;;;17.50;11.90;;;;;;;15.62;63.18;100911.19;108233;1231;61621;-59
2023/09/19 03:44:04;;;;;;;17.20;11.80;;;;;;;15.63;63.21;100913.95;108683;1231;62774;-59
2023/09/19 03:46:32;;;;;;;14.90;11.10;;;;;;;15.64;63.17;100907.80;108692;1235;60445;-56
2023/09/19 03:48:59;;;;;;;15.20;10.60;;;;;;;15.63;63.10;100904.86;111153;1236;58388;-58
2023/09/19 03:51:26;;;;;;;15.10;10.50;;;;;;;15.64;63.16;100901.29;108997;1234;65428;-55
2023/09/19 03:53:52;;;;;;;13.40;10.10;;;;;;;15.67;63.10;100899.91;108115;1237;62071;-57
2023/09/19 03:56:19;;;;;;;14.10;10.90;;;;;;;15.73;63.10;100902.73;109015;1235;64029;-61
2023/09/19 03:58:46;;;;;;;14.30;11.20;;;;;;;15.76;62.89;100900.29;108143;1231;60445;-57
2023/09/19 04:01:13;;;;;;;13.50;10.70;;;;;;;15.76;62.86;100901.71;108363;1236;60519;-55
2023/09/19 04:03:47;;;;;;;14.80;10.00;;;;;;;15.78;62.68;100898.58;110899;1231;63926;-57
2023/09/19 04:06:15;;;;;;;15.00;10.60;;;;;;;15.78;62.49;100900.65;111846;1235;61464;-59
2023/09/19 04:08:44;;;;;;;12.40;9.70;;;;;;;15.77;62.43;100902.95;108374;1232;63842;-59
2023/09/19 04:11:15;;;;;;;14.20;9.60;;;;;;;15.76;62.47;100906.69;108316;1237;60397;-59
2023/09/19 04:13:46;;;;;;;18.60;10.80;;;;;;;15.77;62.37;100900.63;109425;1231;60525;-57
2023/09/19 04:16:15;;;;;;;13.50;10.40;;;;;;;15.76;62.60;100901.71;108483;1235;65477;-59
2023/09/19 04:18:43;;;;;;;14.60;10.60;;;;;;;15.77;62.58;100899.59;110195;1231;61657;-58
2023/09/19 04:21:10;;;;;;;12.00;9.70;;;;;;;15.77;62.61;100895.15;108163;1235;64058;-60
2023/09/19 04:23:38;;;;;;;13.90;9.20;;;;;;;15.76;62.64;100896.47;111984;1231;58518;-60
2023/09/19 04:26:06;;;;;;;12.00;8.80;;;;;;;15.76;62.50;100895.21;109241;1231;60499;-62
2023/09/19 04:28:38;;;;;;;12.20;8.50;;;;;;;15.80;62.24;100891.34;111165;1231;65542;-60
2023/09/19 04:31:05;;;;;;;11.90;9.50;;;;;;;15.85;62.12;100891.42;109402;1231;62263;-56
2023/09/19 04:33:35;;;;;;;12.60;8.90;;;;;;;15.88;61.95;100887.38;109281;1237;64205;-56
2023/09/19 04:36:03;;;;;;;11.80;9.20;;;;;;;15.91;62.00;100887.83;108020;1235;60513;-54
2023/09/19 04:38:50;;;;;;;12.50;9.10;;;;;;;15.93;61.94;100892.75;108203;1231;60494;-55
2023/09/19 04:41:18;;;;;;;14.10;10.30;;;;;;;15.96;62.05;100892.52;108242;1231;63693;-53
2023/09/19 04:43:45;;;;;;;11.30;9.40;;;;;;;15.97;62.04;100889.86;110711;1231;61755;-54
2023/09/19 04:46:14;;;;;;;11.60;8.80;;;;;;;16.04;62.07;100888.75;107931;1236;63947;-54
2023/09/19 04:48:41;;;;;;;12.50;9.00;;;;;;;16.16;61.92;100887.73;109220;1235;60397;-56
2023/09/19 04:51:08;;;;;;;11.90;9.00;;;;;;;16.28;61.55;100886.80;112077;1231;58672;-57
2023/09/19 04:53:34;;;;;;;12.10;9.40;;;;;;;16.37;61.37;100884.48;112189;1231;63994;-59
2023/09/19 04:56:06;;;;;;;12.30;9.40;;;;;;;16.45;60.86;100885.63;110461;1231;61686;-52
2023/09/19 04:58:34;;;;;;;12.30;9.20;;;;;;;16.55;60.31;100888.61;111757;1231;63712;-53
2023/09/19 05:01:03;;;;;;;15.80;9.90;;;;;;;16.63;59.85;100887.30;108717;1231;60426;-54
2023/09/19 05:03:30;;;;;;;12.40;9.40;;;;;;;16.68;59.59;100888.39;108278;1236;60318;-52
2023/09/19 05:05:58;;;;;;;13.50;10.00;;;;;;;16.72;58.99;100891.58;108870;1235;65035;-55
2023/09/19 05:08:25;;;;;;;12.70;10.00;;;;;;;16.75;58.81;100889.71;108079;1235;61616;-54
2023/09/19 05:10:52;;;;;;;11.20;8.90;;;;;;;16.76;58.71;100887.95;112152;1231;63916;-53
2023/09/19 05:13:19;;;;;;;12.30;8.50;;;;;;;16.84;58.63;100890.59;112198;1231;58582;-52
2023/09/19 05:15:48;;;;;;;12.60;8.70;;;;;;;16.93;58.57;100886.58;112187;1231;58440;-63
2023/09/19 05:18:17;;;;;;;14.70;8.90;;;;;;;16.99;58.08;100886.80;112217;1235;65951;-62
2023/09/19 05:20:44;;;;;;;12.40;9.00;;;;;;;17.04;57.91;100891.06;112218;1231;61554;-59
2023/09/19 05:23:14;;;;;;;14.20;9.30;;;;;;;17.10;57.70;100889.29;112025;1232;62425;-62
2023/09/19 05:25:41;;;;;;;11.40;8.50;;;;;;;17.15;57.46;100892.45;110870;1231;60465;-63
2023/09/19 05:28:09;;;;;;;11.90;9.30;;;;;;;17.21;57.16;100892.92;108462;1232;60487;-62
2023/09/19 05:30:35;;;;;;;14.40;9.50;;;;;;;17.26;56.83;100895.80;108391;1231;63967;-55
2023/09/19 05:33:04;;;;;;;13.80;9.60;;;;;;;17.30;56.63;100896.00;111970;1235;61384;-59
2023/09/19 05:35:31;;;;;;;14.80;9.80;;;;;;;17.33;56.30;100895.16;108586;1235;62711;-59
2023/09/19 05:37:58;;;;;;;12.50;9.50;;;;;;;17.33;56.18;100894.42;112197;1231;58357;-57
2023/09/19 05:40:25;;;;;;;12.40;9.10;;;;;;;17.36;56.17;100890.05;112151;1231;58440;-55
2023/09/19 05:42:52;;;;;;;12.60;8.70;;;;;;;17.46;56.19;100885.34;109266;1235;65548;-65
2023/09/19 05:45:24;;;;;;;14.60;9.40;;;;;;;17.57;56.10;100880.06;108026;1240;61606;-64
2023/09/19 05:47:55;;;;;;;11.70;9.20;;;;;;;17.67;56.24;100882.84;110601;1231;64056;-65
2023/09/19 05:50:24;;;;;;;15.50;9.90;;;;;;;17.74;56.04;100884.55;112152;1231;58395;-67
2023/09/19 05:52:55;;;;;;;12.60;9.10;;;;;;;17.82;55.84;100887.10;112178;1231;58281;-67
2023/09/19 05:55:24;;;;;;;13.20;8.90;;;;;;;17.89;55.68;100890.35;109733;1235;65437;-68
2023/09/19 05:57:52;;;;;;;12.70;9.40;;;;;;;17.94;55.28;100887.13;107968;1235;61451;-61
2023/09/19 06:00:22;;;;;;;11.80;9.00;;;;;;;17.99;55.31;100884.20;109771;1231;63780;-58
2023/09/19 06:02:52;;;;;;;13.60;9.40;;;;;;;18.03;55.16;100880.91;108797;1231;60457;-61
2023/09/19 06:05:20;;;;;;;15.00;8.60;;;;;;;18.07;54.77;100883.56;108339;1231;60680;-61
2023/09/19 06:07:47;;;;;;;12.20;9.10;;;;;;;18.11;54.89;100880.51;108090;1235;65381;-59
2023/09/19 06:10:14;;;;;;;13.20;7.90;;;;;;;18.14;54.59;100881.24;108349;1231;61668;-61
2023/09/19 06:12:44;;;;;;;11.70;8.40;;;;;;;18.21;54.45;100878.19;108225;1235;64460;-61
2023/09/19 06:15:15;;;;;;;10.90;7.80;;;;;;;18.31;54.39;100876.75;108536;1236;60513;-58
2023/09/19 06:17:55;;;;;;;15.30;10.20;;;;;;;18.40;54.40;100876.52;109482;1231;61861;-61
2023/09/19 06:20:23;;;;;;;15.70;8.70;;;;;;;18.48;54.45;100875.70;107902;1237;65255;-61
2023/09/19 06:22:49;;;;;;;13.80;8.60;;;;;;;18.54;53.99;100874.85;109697;1231;60445;-63
2023/09/19 06:25:19;;;;;;;15.50;8.90;;;;;;;18.60;53.36;100876.06;107777;1231;308446;-58
2023/09/19 06:29:30;;;;;;;13.50;8.80;;;;;;;18.52;53.72;100883.59;101983;1291;600962;-62
2023/09/19 06:31:58;;;;;;;11.60;8.20;;;;;;;18.77;53.59;100883.52;104641;1266;59340;-61
2023/09/19 06:34:26;;;;;;;12.20;8.50;;;;;;;18.84;53.14;100884.13;104867;1268;60071;-62
2023/09/19 06:36:55;;;;;;;13.40;8.30;;;;;;;18.89;53.02;100880.95;104260;1266;62017;-61
2023/09/19 06:39:23;;;;;;;14.20;8.90;;;;;;;18.95;53.10;100874.82;108088;1267;60291;-65
2023/09/19 06:41:50;;;;;;;13.70;8.60;;;;;;;19.02;53.08;100877.06;108299;1268;62468;-63
2023/09/19 06:44:17;;;;;;;12.60;8.40;;;;;;;19.09;52.99;100876.27;104300;1264;249624;-60
2023/09/19 06:46:46;;;;;;;11.40;7.40;;;;;;;19.18;52.92;100877.46;104251;1271;59264;-65
2023/09/19 06:49:15;;;;;;;13.30;8.40;;;;;;;19.31;52.22;100874.34;108488;1265;63347;-59
2023/09/19 06:51:43;;;;;;;11.00;7.90;;;;;;;19.46;52.21;100878.54;108356;1266;62049;-59
2023/09/19 06:54:11;;;;;;;12.10;7.40;;;;;;;19.60;52.28;100878.11;104551;1271;62669;-62
2023/09/19 06:56:38;;;;;;;10.50;7.60;;;;;;;19.72;52.23;100876.42;104677;1266;59664;-64
2023/09/19 06:59:07;;;;;;;12.50;6.90;;;;;;;19.83;52.01;100877.15;104561;1260;59777;-64
2023/09/19 07:01:36;;;;;;;10.40;7.30;;;;;;;19.94;52.01;100875.98;104783;1263;64170;-63
2023/09/19 07:04:05;;;;;;;11.20;7.40;;;;;;;20.05;51.90;100872.98;105201;1263;60094;-67
2023/09/19 07:06:33;;;;;;;9.60;7.60;;;;;;;20.14;51.81;100875.77;107662;1262;63706;-65
2023/09/19 07:09:01;;;;;;;12.60;7.40;;;;;;;20.23;51.57;100874.23;105248;1265;59769;-64
2023/09/19 07:11:30;;;;;;;10.70;7.90;;;;;;;20.32;51.22;100876.16;104763;1265;59539;-61
2023/09/19 07:13:58;;;;;;;10.00;7.30;;;;;;;20.40;51.48;100874.31;104734;1261;64233;-63
2023/09/19 07:16:29;;;;;;;10.50;7.80;;;;;;;20.47;51.18;100872.10;105286;1262;61987;-63
2023/09/19 07:18:57;;;;;;;12.30;7.60;;;;;;;20.55;50.67;100867.94;105618;1263;63757;-59
2023/09/19 07:21:25;;;;;;;10.10;8.00;;;;;;;20.64;50.44;100867.01;105218;1263;59809;-65
2023/09/19 07:23:53;;;;;;;10.40;7.20;;;;;;;20.73;49.94;100869.16;104744;1261;59706;-60
2023/09/19 07:26:20;;;;;;;9.40;6.80;;;;;;;20.81;49.21;100868.16;104656;1265;64108;-66
2023/09/19 07:28:48;;;;;;;12.80;7.80;;;;;;;20.89;49.22;100865.96;104838;1263;61933;-67
2023/09/19 07:31:16;;;;;;;11.60;7.90;;;;;;;20.98;49.70;100862.66;104567;1260;62493;-61
2023/09/19 07:33:44;;;;;;;9.90;7.40;;;;;;;21.08;49.42;100862.17;105744;1264;59721;-59
2023/09/19 07:36:16;;;;;;;8.20;6.70;;;;;;;21.19;49.57;100862.18;105061;1262;59781;-62
2023/09/19 07:38:43;;;;;;;9.00;7.30;;;;;;;21.30;48.99;100863.05;104880;1261;64162;-58
2023/09/19 07:41:11;;;;;;;8.80;6.80;;;;;;;21.40;48.07;100862.97;104553;1262;61315;-66
2023/09/19 07:43:40;;;;;;;10.30;7.30;;;;;;;21.48;47.90;100856.60;107000;1258;63709;-59
2023/09/19 07:46:11;;;;;;;10.10;7.00;;;;;;;21.58;47.89;100854.45;108485;1262;57720;-62
2023/09/19 07:48:40;;;;;;;9.20;6.90;;;;;;;21.67;47.43;100847.88;104889;1262;59631;-62
2023/09/19 07:51:08;;;;;;;11.90;6.50;;;;;;;21.77;47.72;100845.05;105480;1253;64054;-61
2023/09/19 07:53:36;;;;;;;8.00;6.20;;;;;;;21.88;47.33;100844.52;107426;1254;72609;-62
2023/09/19 07:56:05;;;;;;;9.90;5.50;;;;;;;22.02;45.88;100841.45;105078;1258;62442;-63
2023/09/19 07:58:33;;;;;;;8.40;5.70;;;;;;;22.13;44.92;100841.75;109102;1257;57578;-60
2023/09/19 08:01:08;;;;;;;8.60;5.60;;;;;;;22.23;44.10;100844.09;108131;1258;59712;-53
2023/09/19 08:03:40;;;;;;;7.50;5.80;;;;;;;22.36;43.49;100836.27;105465;1253;64147;-53
2023/09/19 08:06:08;;;;;;;10.60;6.10;;;;;;;22.48;43.80;100829.87;105469;1253;62896;-61
2023/09/19 08:08:39;;;;;;;9.00;5.90;;;;;;;22.59;44.48;100826.89;107287;1253;64427;-57
2023/09/19 08:11:21;;;;;;;11.20;5.50;;;;;;;22.69;43.67;100822.45;105060;1253;59837;-57
2023/09/19 08:13:49;;;;;;;10.00;5.30;;;;;;;22.80;43.09;100819.09;105204;1253;60332;-59
2023/09/19 08:16:19;;;;;;;8.10;5.60;;;;;;;22.92;42.63;100811.80;104922;1253;62954;-59
2023/09/19 08:18:48;;;;;;;10.00;4.60;;;;;;;23.02;41.19;100813.52;105273;1258;60480;-60
2023/09/19 08:21:15;;;;;;;9.80;4.90;;;;;;;23.10;39.61;100811.44;106026;1258;64508;-60
2023/09/19 08:23:44;;;;;;;6.50;4.30;;;;;;;23.18;38.96;100802.79;105098;1253;59634;-59
2023/09/19 08:26:12;;;;;;;8.50;4.70;;;;;;;23.25;38.79;100804.98;105153;1253;62067;-59
2023/09/19 08:28:42;;;;;;;7.80;4.60;;;;;;;23.31;38.79;100799.73;105144;1259;66437;-60
2023/09/19 08:31:10;;;;;;;7.70;4.50;;;;;;;23.38;39.43;100800.27;105258;1253;61592;-60
2023/09/19 08:34:03;;;;;;;8.10;4.50;;;;;;;23.45;39.34;100796.67;105408;1256;62503;-60
2023/09/19 08:36:30;;;;;;;7.50;4.50;;;;;;;23.53;38.37;100792.13;105212;1256;59747;-58
2023/09/19 08:38:58;;;;;;;6.60;4.10;;;;;;;23.60;37.85;100791.79;105842;1253;59993;-52
2023/09/19 08:41:26;;;;;;;10.30;4.70;;;;;;;23.66;38.02;100788.89;106002;1258;64127;-62
2023/09/19 08:43:54;;;;;;;7.10;4.50;;;;;;;23.73;37.54;100788.52;105321;1258;62646;-62
2023/09/19 08:46:22;;;;;;;7.10;4.20;;;;;;;23.79;37.88;100786.39;105308;1258;62450;-63
2023/09/19 08:49:04;;;;;;;8.60;5.20;;;;;;;23.85;38.06;100786.85;105513;1253;59683;-62
2023/09/19 08:51:46;;;;;;;9.00;4.70;;;;;;;23.92;38.10;100783.57;105751;1256;59762;-63
2023/09/19 08:54:26;;;;;;;8.50;4.70;;;;;;;24.00;37.41;100784.80;105252;1259;63074;-60
2023/09/19 08:56:54;;;;;;;10.40;4.70;;;;;;;24.05;37.14;100783.42;105285;1253;61877;-60
2023/09/19 08:59:26;;;;;;;8.30;4.80;;;;;;;24.11;37.72;100778.80;105991;1256;63823;-59
2023/09/19 09:01:53;;;;;;;8.50;4.60;;;;;;;24.19;38.06;100777.79;105961;1256;59758;-59
2023/09/19 09:04:22;;;;;;;6.50;4.70;;;;;;;24.27;37.77;100771.64;105244;1253;59529;-62
2023/09/19 09:06:53;;;;;;;9.80;4.50;;;;;;;24.36;37.24;100767.48;106116;1253;64454;-62
2023/09/19 09:09:31;;;;;;;7.40;4.20;;;;;;;24.45;36.56;100766.80;105453;1258;60335;-63
2023/09/19 09:12:03;;;;;;;8.50;4.20;;;;;;;24.52;36.41;100761.89;105329;1260;62618;-60
2023/09/19 09:14:37;;;;;;;8.30;5.00;;;;;;;24.61;36.11;100756.48;105900;1258;61232;-66
2023/09/19 09:17:07;;;;;;;6.80;4.50;;;;;;;24.69;36.01;100753.01;109017;1255;61952;-61
2023/09/19 09:19:34;;;;;;;9.40;4.10;;;;;;;24.77;35.45;100755.83;109038;1253;62884;-61
2023/09/19 09:22:09;;;;;;;8.80;4.40;;;;;;;24.86;34.50;100756.98;106343;1256;63840;-59
2023/09/19 09:24:38;;;;;;;10.10;4.40;;;;;;;24.92;34.10;100753.91;105083;1256;62865;-64
2023/09/19 09:27:10;;;;;;;7.90;4.10;;;;;;;24.96;33.41;100755.86;105157;1253;59736;-62
2023/09/19 09:29:51;;;;;;;8.60;5.00;;;;;;;24.99;33.30;100754.85;105356;1258;59552;-59
2023/09/19 09:32:22;;;;;;;7.20;4.50;;;;;;;25.03;33.38;100761.89;105094;1253;62879;-61
2023/09/19 09:34:52;;;;;;;7.30;4.50;;;;;;;25.07;33.27;100759.61;105970;1255;61633;-64
2023/09/19 09:37:21;;;;;;;7.60;4.50;;;;;;;25.10;33.39;100750.57;105026;1253;63392;-60
2023/09/19 09:39:54;;;;;;;7.20;4.50;;;;;;;25.13;33.80;100737.73;109114;1253;59101;-63
2023/09/19 09:42:41;;;;;;;6.40;3.90;;;;;;;25.20;33.85;100731.58;109090;1253;57562;-61
2023/09/19 09:45:16;;;;;;;9.00;4.50;;;;;;;25.29;33.54;100734.73;108123;1253;65211;-64
2023/09/19 09:47:56;;;;;;;7.50;4.70;;;;;;;25.35;32.87;100729.00;105490;1259;60403;-62
2023/09/19 09:50:29;;;;;;;10.80;4.60;;;;;;;25.40;33.30;100724.71;107784;1254;63852;-64
2023/09/19 09:53:06;;;;;;;5.70;3.50;;;;;;;25.48;33.40;100722.16;106570;1254;59900;-61
2023/09/19 09:56:14;;;;;;;6.20;3.80;;;;;;;25.56;32.46;100724.11;105483;1256;59685;-62
2023/09/19 09:58:56;;;;;;;14.90;4.50;;;;;;;25.48;31.43;100719.50;104942;1256;63062;-60
2023/09/19 10:01:26;;;;;;;7.30;4.10;;;;;;;25.49;31.31;100717.43;104706;1254;71201;-64
2023/09/19 10:03:57;;;;;;;6.10;3.30;;;;;;;25.53;31.01;100722.92;109098;1258;75320;-60
2023/09/19 10:06:26;;;;;;;11.50;4.10;;;;;;;25.57;31.12;100721.20;109020;1253;57683;-65
2023/09/19 10:09:16;;;;;;;10.50;4.30;;;;;;;25.64;30.94;100712.55;109069;1253;60960;-64
2023/09/19 10:11:45;;;;;;;9.00;4.30;;;;;;;25.72;30.79;100713.05;107051;1256;65000;-62
2023/09/19 10:14:15;;;;;;;6.30;3.90;;;;;;;25.80;30.62;100704.30;105382;1256;60681;-63
2023/09/19 10:16:47;;;;;;;11.60;4.40;;;;;;;25.85;30.20;100700.30;105290;1258;64748;-61
2023/09/19 10:19:18;;;;;;;6.40;3.80;;;;;;;25.87;30.24;100703.61;105409;1261;59762;-57
2023/09/19 10:21:45;;;;;;;10.70;3.90;;;;;;;25.89;30.60;100700.27;105588;1254;59762;-62
2023/09/19 10:24:13;;;;;;;8.50;3.80;;;;;;;25.94;30.50;100702.66;105168;1261;64229;-58
2023/09/19 10:26:43;;;;;;;7.30;4.20;;;;;;;26.01;30.75;100699.20;105043;1256;62100;-61
2023/09/19 10:29:13;;;;;;;8.80;4.50;;;;;;;26.07;30.52;100696.66;105404;1256;62531;-61
2023/09/19 10:31:47;;;;;;;9.40;4.50;;;;;;;26.13;30.78;100698.32;105265;1263;59802;-60
2023/09/19 10:34:15;;;;;;;6.70;4.20;;;;;;;26.19;30.40;100699.08;105005;1254;59694;-69
2023/09/19 10:36:48;;;;;;;7.40;5.10;;;;;;;26.21;30.52;100685.23;105137;1253;64666;-63
2023/09/19 10:39:20;;;;;;;13.80;4.00;;;;;;;26.25;30.75;100687.03;105108;1256;73221;-64
2023/09/19 10:41:54;;;;;;;6.90;3.50;;;;;;;26.29;30.32;100676.46;105252;1260;62523;-59
2023/09/19 10:44:23;;;;;;;7.60;4.00;;;;;;;26.34;30.53;100680.48;105406;1259;60544;-61
2023/09/19 10:46:52;;;;;;;7.90;4.10;;;;;;;26.39;30.42;100670.41;106847;1257;60419;-61
2023/09/19 10:49:21;;;;;;;8.80;4.60;;;;;;;26.45;30.64;100667.70;105343;1258;64909;-62
2023/09/19 10:51:50;;;;;;;8.00;4.00;;;;;;;26.52;30.64;100669.27;105380;1259;71262;-63
2023/09/19 10:54:19;;;;;;;7.20;4.40;;;;;;;26.58;30.56;100671.61;105271;1257;65887;-62
2023/09/19 10:56:51;;;;;;;8.60;3.90;;;;;;;26.66;30.54;100672.86;105205;1258;60425;-59
2023/09/19 10:59:20;;;;;;;7.70;4.30;;;;;;;26.73;30.65;100657.30;105319;1253;60525;-60
2023/09/19 11:01:51;;;;;;;8.80;4.00;;;;;;;26.78;30.64;100658.70;105217;1258;64900;-60
2023/09/19 11:04:29;;;;;;;7.40;4.00;;;;;;;26.84;30.27;100658.17;105297;1253;61340;-61
2023/09/19 11:07:15;;;;;;;6.30;3.80;;;;;;;26.92;30.37;100656.40;105854;1256;64236;-65
2023/09/19 11:09:53;;;;;;;7.60;3.60;;;;;;;27.00;30.17;100656.85;105383;1254;60540;-64
2023/09/19 11:12:48;;;;;;;8.70;4.40;;;;;;;27.05;29.89;100654.75;106086;1260;60556;-61
2023/09/19 11:15:54;;;;;;;9.60;4.40;;;;;;;27.08;29.31;100650.19;105337;1262;65087;-63
2023/09/19 11:18:40;;;;;;;5.60;3.70;;;;;;;27.06;29.36;100648.26;106059;1256;60505;-64
2023/09/19 11:21:29;;;;;;;16.60;6.00;;;;;;;27.06;29.75;100637.88;105482;1259;65987;-60
2023/09/19 11:24:22;;;;;;;7.30;4.10;;;;;;;27.11;30.02;100634.77;105991;1257;60362;-64
2023/09/19 11:26:51;;;;;;;9.60;5.10;;;;;;;27.17;29.99;100641.31;105224;1258;60592;-67